createdAt,value
2022-09-30T00:00:38.955Z,100.00
2022-09-30T00:01:41.972Z,100.00
2022-09-30T00:02:44.858Z,100.00
2022-09-30T00:03:49.264Z,100.00
2022-09-30T00:04:51.630Z,100.00
2022-09-30T00:06:07.952Z,100.00
2022-09-30T00:07:10.797Z,100.00
2022-09-30T00:08:12.963Z,100.00
2022-09-30T00:09:16.359Z,100.00
2022-09-30T00:10:18.854Z,100.00
2022-09-30T00:11:25.304Z,100.00
2022-09-30T00:12:27.480Z,100.00
2022-09-30T00:13:31.527Z,100.00
2022-09-30T00:14:33.855Z,100.00
2022-09-30T00:15:36.029Z,100.00
2022-09-30T00:16:38.419Z,100.00
2022-09-30T00:17:40.631Z,100.00
2022-09-30T00:18:44.621Z,100.00
2022-09-30T00:19:47.566Z,100.00
2022-09-30T00:20:49.827Z,100.00
2022-09-30T00:21:52.027Z,100.00
2022-09-30T00:22:54.241Z,100.00
2022-09-30T00:23:57.252Z,100.00
2022-09-30T00:24:59.445Z,100.00
2022-09-30T00:26:05.241Z,100.00
2022-09-30T00:27:07.474Z,100.00
2022-09-30T00:28:09.657Z,100.00
2022-09-30T00:29:12.277Z,100.00
2022-09-30T00:30:14.792Z,100.00
2022-09-30T00:31:19.554Z,100.00
2022-09-30T00:32:21.863Z,100.00
2022-09-30T00:33:24.091Z,100.00
2022-09-30T00:34:26.303Z,100.00
2022-09-30T00:35:28.611Z,100.00
2022-09-30T00:36:30.798Z,100.00
2022-09-30T00:37:33.030Z,100.00
2022-09-30T00:38:35.190Z,100.00
2022-09-30T00:39:37.541Z,100.00
2022-09-30T00:40:43.520Z,100.00
2022-09-30T00:41:48.702Z,100.00
2022-09-30T00:42:51.068Z,100.00
2022-09-30T00:43:53.852Z,100.00
2022-09-30T00:45:05.099Z,100.00
2022-09-30T00:46:31.782Z,100.00
2022-09-30T00:47:34.070Z,100.00
2022-09-30T00:48:39.339Z,100.00
2022-09-30T00:49:41.593Z,100.00
2022-09-30T00:50:47.212Z,100.00
2022-09-30T00:51:54.343Z,100.00
2022-09-30T00:53:11.795Z,100.00
2022-09-30T00:54:20.137Z,100.00
2022-09-30T00:55:36.121Z,100.00
2022-09-30T00:56:46.817Z,100.00
2022-09-30T00:57:49.045Z,100.00
2022-09-30T00:59:00.989Z,100.00
2022-09-30T01:00:05.168Z,100.00
2022-09-30T01:01:07.582Z,100.00
2022-09-30T01:02:10.770Z,100.00
2022-09-30T01:03:13.088Z,100.00
2022-09-30T01:04:17.922Z,100.00
2022-09-30T01:05:20.294Z,100.00
2022-09-30T01:06:23.939Z,100.00
2022-09-30T01:07:26.137Z,100.00
2022-09-30T01:08:30.563Z,100.00
2022-09-30T01:09:38.299Z,100.00
2022-09-30T01:10:40.558Z,100.00
2022-09-30T01:11:42.796Z,100.00
2022-09-30T01:12:45.089Z,100.00
2022-09-30T01:13:50.493Z,100.00
2022-09-30T01:14:55.933Z,100.00
2022-09-30T01:16:12.999Z,100.00
2022-09-30T01:17:20.651Z,100.00
2022-09-30T01:18:50.755Z,100.00
2022-09-30T01:20:17.554Z,100.00
2022-09-30T01:21:47.247Z,100.00
2022-09-30T01:23:13.379Z,100.00
2022-09-30T01:24:39.801Z,100.00
2022-09-30T01:26:09.386Z,100.00
2022-09-30T01:27:46.937Z,100.00
2022-09-30T01:29:12.649Z,100.00
2022-09-30T01:30:37.731Z,100.00
2022-09-30T01:31:43.913Z,100.00
2022-09-30T01:32:49.365Z,100.00
2022-09-30T01:34:20.757Z,100.00
2022-09-30T01:35:37.705Z,100.00
2022-09-30T01:37:03.098Z,100.00
2022-09-30T01:38:29.701Z,100.00
2022-09-30T01:40:05.877Z,100.00
2022-09-30T01:41:19.127Z,100.00
2022-09-30T01:42:45.265Z,100.00
2022-09-30T01:44:13.332Z,100.00
2022-09-30T01:45:27.031Z,100.00
2022-09-30T01:46:44.402Z,100.00
2022-09-30T01:48:14.553Z,100.00
2022-09-30T01:49:27.508Z,100.00
2022-09-30T01:51:05.967Z,100.00
2022-09-30T01:52:16.549Z,100.00
2022-09-30T01:53:21.565Z,100.00
2022-09-30T01:54:35.762Z,100.00
2022-09-30T01:55:49.954Z,100.00
2022-09-30T01:56:59.101Z,100.00
2022-09-30T01:58:09.323Z,100.00
2022-09-30T01:59:19.813Z,100.00
2022-09-30T02:00:22.687Z,100.00
2022-09-30T02:01:39.229Z,100.00
2022-09-30T02:02:53.237Z,100.00
2022-09-30T02:03:59.515Z,100.00
2022-09-30T02:05:37.890Z,100.00
2022-09-30T02:06:45.390Z,100.00
2022-09-30T02:07:57.246Z,100.00
2022-09-30T02:09:28.256Z,100.00
2022-09-30T02:10:39.333Z,100.00
2022-09-30T02:11:42.520Z,100.00
2022-09-30T02:12:53.779Z,100.00
2022-09-30T02:14:14.469Z,100.00
2022-09-30T02:15:24.936Z,100.00
2022-09-30T02:16:40.130Z,100.00
2022-09-30T02:17:50.193Z,100.00
2022-09-30T02:18:57.792Z,100.00
2022-09-30T02:20:05.982Z,100.00
2022-09-30T02:21:11.082Z,100.00
2022-09-30T02:22:26.012Z,100.00
2022-09-30T02:23:33.483Z,100.00
2022-09-30T02:24:39.313Z,100.00
2022-09-30T02:25:51.981Z,100.00
2022-09-30T02:26:57.385Z,100.00
2022-09-30T02:28:05.217Z,100.00
2022-09-30T02:29:13.349Z,100.00
2022-09-30T02:30:15.910Z,100.00
2022-09-30T02:31:21.739Z,100.00
2022-09-30T02:32:32.062Z,100.00
2022-09-30T02:33:43.693Z,100.00
2022-09-30T02:34:51.272Z,100.00
2022-09-30T02:36:00.104Z,100.00
2022-09-30T02:37:13.234Z,100.00
2022-09-30T02:38:26.848Z,100.00
2022-09-30T02:39:36.417Z,100.00
2022-09-30T02:40:48.094Z,100.00
2022-09-30T02:41:55.407Z,100.00
2022-09-30T02:42:58.040Z,100.00
2022-09-30T02:44:02.730Z,100.00
2022-09-30T02:45:11.490Z,100.00
2022-09-30T02:46:31.812Z,100.00
2022-09-30T02:47:48.903Z,100.00
2022-09-30T02:49:00.167Z,100.00
2022-09-30T02:50:11.458Z,100.00
2022-09-30T02:51:22.570Z,100.00
2022-09-30T02:52:36.056Z,100.00
2022-09-30T02:53:49.267Z,100.00
2022-09-30T02:55:06.370Z,100.00
2022-09-30T02:56:26.696Z,100.00
2022-09-30T02:58:10.244Z,100.00
2022-09-30T02:59:12.594Z,100.00
2022-09-30T03:00:14.778Z,100.00
2022-09-30T03:01:17.737Z,100.00
2022-09-30T03:02:21.355Z,100.00
2022-09-30T03:03:41.971Z,100.00
2022-09-30T03:04:46.663Z,100.00
2022-09-30T03:05:50.223Z,100.00
2022-09-30T03:06:52.534Z,100.00
2022-09-30T03:07:55.939Z,100.00
2022-09-30T03:08:58.504Z,100.00
2022-09-30T03:10:00.664Z,100.00
2022-09-30T03:11:04.529Z,100.00
2022-09-30T03:12:14.514Z,100.00
2022-09-30T03:13:39.565Z,100.00
2022-09-30T03:14:51.298Z,100.00
2022-09-30T03:15:59.451Z,100.00
2022-09-30T03:17:20.078Z,100.00
2022-09-30T03:18:45.648Z,100.00
2022-09-30T03:20:09.789Z,100.00
2022-09-30T03:21:22.089Z,100.00
2022-09-30T03:22:33.291Z,100.00
2022-09-30T03:23:41.294Z,100.00
2022-09-30T03:25:11.495Z,100.00
2022-09-30T03:26:19.659Z,100.00
2022-09-30T03:27:46.464Z,100.00
2022-09-30T03:29:01.021Z,100.00
2022-09-30T03:30:03.222Z,100.00
2022-09-30T03:31:30.498Z,100.00
2022-09-30T03:33:06.181Z,100.00
2022-09-30T03:34:26.877Z,100.00
2022-09-30T03:35:59.926Z,100.00
2022-09-30T03:37:08.671Z,100.00
2022-09-30T03:38:32.659Z,100.00
2022-09-30T03:39:55.093Z,100.00
2022-09-30T03:41:13.963Z,100.00
2022-09-30T03:42:26.945Z,100.00
2022-09-30T03:43:46.098Z,100.00
2022-09-30T03:44:51.101Z,100.00
2022-09-30T03:46:01.342Z,100.00
2022-09-30T03:47:09.074Z,100.00
2022-09-30T03:48:13.783Z,100.00
2022-09-30T03:49:24.960Z,100.00
2022-09-30T03:50:29.480Z,100.00
2022-09-30T03:51:35.619Z,100.00
2022-09-30T03:52:38.466Z,100.00
2022-09-30T03:53:42.821Z,100.00
2022-09-30T03:54:59.184Z,100.00
2022-09-30T03:56:01.507Z,100.00
2022-09-30T03:57:05.243Z,100.00
2022-09-30T03:58:09.018Z,100.00
2022-09-30T03:59:25.632Z,100.00
2022-09-30T04:00:27.886Z,100.00
2022-09-30T04:01:30.066Z,100.00
2022-09-30T04:02:32.597Z,100.00
2022-09-30T04:03:35.529Z,100.00
2022-09-30T04:04:37.673Z,100.00
2022-09-30T04:05:39.831Z,100.00
2022-09-30T04:06:41.971Z,100.00
2022-09-30T04:07:44.101Z,100.00
2022-09-30T04:08:46.339Z,100.00
2022-09-30T04:09:48.560Z,100.00
2022-09-30T04:10:50.762Z,100.00
2022-09-30T04:11:52.877Z,100.00
2022-09-30T04:12:55.065Z,100.00
2022-09-30T04:13:57.214Z,100.00
2022-09-30T04:14:59.308Z,100.00
2022-09-30T04:16:01.596Z,100.00
2022-09-30T04:17:05.112Z,100.00
2022-09-30T04:18:07.555Z,100.00
2022-09-30T04:19:09.704Z,100.00
2022-09-30T04:20:12.773Z,100.00
2022-09-30T04:21:15.505Z,100.00
2022-09-30T04:22:17.602Z,100.00
2022-09-30T04:23:19.690Z,100.00
2022-09-30T04:24:23.426Z,100.00
2022-09-30T04:25:27.897Z,100.00
2022-09-30T04:26:30.089Z,100.00
2022-09-30T04:27:32.269Z,100.00
2022-09-30T04:28:34.892Z,100.00
2022-09-30T04:29:37.003Z,100.00
2022-09-30T04:30:39.120Z,100.00
2022-09-30T04:31:42.041Z,100.00
2022-09-30T04:32:47.530Z,100.00
2022-09-30T04:33:50.584Z,100.00
2022-09-30T04:34:54.114Z,100.00
2022-09-30T04:35:57.238Z,100.00
2022-09-30T04:36:59.366Z,100.00
2022-09-30T04:38:02.584Z,100.00
2022-09-30T04:39:05.424Z,100.00
2022-09-30T04:40:09.835Z,100.00
2022-09-30T04:41:18.696Z,100.00
2022-09-30T04:42:20.765Z,100.00
2022-09-30T04:43:24.234Z,100.00
2022-09-30T04:44:26.341Z,100.00
2022-09-30T04:45:30.078Z,100.00
2022-09-30T04:46:36.688Z,100.00
2022-09-30T04:47:39.955Z,100.00
2022-09-30T04:48:45.701Z,100.00
2022-09-30T04:49:47.815Z,100.00
2022-09-30T04:50:50.841Z,100.00
2022-09-30T04:51:52.979Z,100.00
2022-09-30T04:52:56.894Z,100.00
2022-09-30T04:53:59.308Z,100.00
2022-09-30T04:55:01.440Z,100.00
2022-09-30T04:56:03.519Z,100.00
2022-09-30T04:57:06.110Z,100.00
2022-09-30T04:58:08.318Z,100.00
2022-09-30T04:59:10.586Z,100.00
2022-09-30T05:00:13.016Z,100.00
2022-09-30T05:01:17.729Z,100.00
2022-09-30T05:02:19.991Z,100.00
2022-09-30T05:03:22.160Z,100.00
2022-09-30T05:04:24.260Z,100.00
2022-09-30T05:05:26.435Z,100.00
2022-09-30T05:06:28.894Z,100.00
2022-09-30T05:07:32.124Z,100.00
2022-09-30T05:08:34.858Z,100.00
2022-09-30T05:09:37.035Z,100.00
2022-09-30T05:10:40.105Z,100.00
2022-09-30T05:11:42.337Z,100.00
2022-09-30T05:12:45.897Z,100.00
2022-09-30T05:13:49.255Z,100.00
2022-09-30T05:14:51.394Z,100.00
2022-09-30T05:15:53.646Z,100.00
2022-09-30T05:16:55.979Z,100.00
2022-09-30T05:17:58.615Z,100.00
2022-09-30T05:19:00.694Z,100.00
2022-09-30T05:20:03.338Z,100.00
2022-09-30T05:21:05.746Z,100.00
2022-09-30T05:22:07.851Z,100.00
2022-09-30T05:23:09.984Z,100.00
2022-09-30T05:24:12.871Z,100.00
2022-09-30T05:25:15.216Z,100.00
2022-09-30T05:26:17.390Z,100.00
2022-09-30T05:27:20.425Z,100.00
2022-09-30T05:28:22.817Z,100.00
2022-09-30T05:29:24.980Z,100.00
2022-09-30T05:30:27.340Z,100.00
2022-09-30T05:31:29.471Z,100.00
2022-09-30T05:32:31.734Z,100.00
2022-09-30T05:33:35.704Z,100.00
2022-09-30T05:34:39.017Z,100.00
2022-09-30T05:35:42.350Z,100.00
2022-09-30T05:36:44.480Z,100.00
2022-09-30T05:37:46.665Z,100.00
2022-09-30T05:38:52.691Z,100.00
2022-09-30T05:39:55.206Z,100.00
2022-09-30T05:40:57.372Z,100.00
2022-09-30T05:41:59.488Z,100.00
2022-09-30T05:43:01.574Z,100.00
2022-09-30T05:44:04.550Z,100.00
2022-09-30T05:45:07.130Z,100.00
2022-09-30T05:46:09.257Z,100.00
2022-09-30T05:47:11.626Z,100.00
2022-09-30T05:48:13.718Z,100.00
2022-09-30T05:49:15.932Z,100.00
2022-09-30T05:50:18.037Z,100.00
2022-09-30T05:51:20.242Z,100.00
2022-09-30T05:52:22.430Z,100.00
2022-09-30T05:53:34.831Z,100.00
2022-09-30T05:54:36.926Z,100.00
2022-09-30T05:55:39.395Z,100.00
2022-09-30T05:56:41.507Z,100.00
2022-09-30T05:57:46.156Z,100.00
2022-09-30T05:58:48.464Z,100.00
2022-09-30T05:59:50.958Z,100.00
2022-09-30T06:00:53.271Z,100.00
2022-09-30T06:01:55.541Z,100.00
2022-09-30T06:02:57.799Z,100.00
2022-09-30T06:04:00.037Z,100.00
2022-09-30T06:05:02.122Z,100.00
2022-09-30T06:06:05.769Z,100.00
2022-09-30T06:07:10.466Z,100.00
2022-09-30T06:08:16.152Z,100.00
2022-09-30T06:09:18.380Z,100.00
2022-09-30T06:10:20.543Z,100.00
2022-09-30T06:11:25.605Z,100.00
2022-09-30T06:12:28.741Z,100.00
2022-09-30T06:13:30.815Z,100.00
2022-09-30T06:14:32.938Z,100.00
2022-09-30T06:15:36.897Z,100.00
2022-09-30T06:16:39.731Z,100.00
2022-09-30T06:17:42.632Z,100.00
2022-09-30T06:18:45.487Z,100.00
2022-09-30T06:19:49.644Z,100.00
2022-09-30T06:20:52.313Z,100.00
2022-09-30T06:21:54.489Z,100.00
2022-09-30T06:22:59.349Z,100.00
2022-09-30T06:24:01.533Z,100.00
2022-09-30T06:25:05.449Z,100.00
2022-09-30T06:26:11.620Z,100.00
2022-09-30T06:27:14.082Z,100.00
2022-09-30T06:28:16.698Z,100.00
2022-09-30T06:29:19.654Z,100.00
2022-09-30T06:30:22.065Z,100.00
2022-09-30T06:31:24.219Z,100.00
2022-09-30T06:32:26.546Z,100.00
2022-09-30T06:33:29.062Z,100.00
2022-09-30T06:34:31.121Z,100.00
2022-09-30T06:35:33.190Z,100.00
2022-09-30T06:36:35.298Z,100.00
2022-09-30T06:37:38.705Z,100.00
2022-09-30T06:38:40.906Z,100.00
2022-09-30T06:39:43.079Z,100.00
2022-09-30T06:40:49.541Z,100.00
2022-09-30T06:41:51.651Z,100.00
2022-09-30T06:43:01.141Z,100.00
2022-09-30T06:44:08.884Z,100.00
2022-09-30T06:45:20.376Z,100.00
2022-09-30T06:46:30.650Z,100.00
2022-09-30T06:47:33.338Z,100.00
2022-09-30T06:48:38.647Z,100.00
2022-09-30T06:49:49.121Z,100.00
2022-09-30T06:51:01.748Z,100.00
2022-09-30T06:52:04.390Z,100.00
2022-09-30T06:53:08.336Z,100.00
2022-09-30T06:54:11.329Z,100.00
2022-09-30T06:55:13.509Z,100.00
2022-09-30T06:56:18.261Z,100.00
2022-09-30T06:57:22.649Z,100.00
2022-09-30T06:58:25.601Z,100.00
2022-09-30T06:59:27.824Z,100.00
2022-09-30T07:00:29.914Z,100.00
2022-09-30T07:01:32.002Z,100.00
2022-09-30T07:02:34.567Z,100.00
2022-09-30T07:03:37.029Z,96.65
2022-09-30T07:04:39.128Z,100.00
2022-09-30T07:05:41.217Z,98.20
2022-09-30T07:06:44.214Z,89.63
2022-09-30T07:07:46.849Z,89.88
2022-09-30T07:08:48.872Z,86.45
2022-09-30T07:09:51.290Z,86.58
2022-09-30T07:10:53.360Z,86.90
2022-09-30T07:11:55.390Z,83.57
2022-09-30T07:12:57.416Z,81.14
2022-09-30T07:13:59.516Z,83.68
2022-09-30T07:15:01.833Z,82.49
2022-09-30T07:16:03.912Z,83.42
2022-09-30T07:17:06.569Z,79.88
2022-09-30T07:18:08.654Z,77.41
2022-09-30T07:19:11.485Z,77.88
2022-09-30T07:20:14.794Z,77.16
2022-09-30T07:21:17.601Z,76.99
2022-09-30T07:22:34.425Z,83.56
2022-09-30T07:23:36.706Z,77.50
2022-09-30T07:24:38.761Z,75.87
2022-09-30T07:25:48.407Z,75.75
2022-09-30T07:26:50.562Z,74.64
2022-09-30T07:27:54.857Z,73.92
2022-09-30T07:28:57.255Z,71.56
2022-09-30T07:30:25.910Z,70.86
2022-09-30T07:31:32.958Z,68.37
2022-09-30T07:32:37.266Z,68.29
2022-09-30T07:33:40.074Z,69.79
2022-09-30T07:34:43.112Z,66.86
2022-09-30T07:35:55.067Z,67.73
2022-09-30T07:36:57.205Z,71.43
2022-09-30T07:38:00.654Z,66.94
2022-09-30T07:39:06.431Z,64.89
2022-09-30T07:40:09.570Z,64.10
2022-09-30T07:41:15.184Z,66.32
2022-09-30T07:42:22.959Z,61.14
2022-09-30T07:43:31.294Z,60.12
2022-09-30T07:44:34.055Z,58.79
2022-09-30T07:45:37.117Z,56.77
2022-09-30T07:46:40.363Z,58.24
2022-09-30T07:47:42.560Z,62.61
2022-09-30T07:48:52.334Z,60.15
2022-09-30T07:49:54.507Z,60.07
2022-09-30T07:50:56.631Z,59.32
2022-09-30T07:51:59.668Z,59.18
2022-09-30T07:53:01.820Z,56.81
2022-09-30T07:54:11.273Z,56.38
2022-09-30T07:55:13.395Z,58.42
2022-09-30T07:56:15.731Z,59.15
2022-09-30T07:57:17.946Z,61.65
2022-09-30T07:58:20.128Z,63.01
2022-09-30T07:59:22.559Z,60.71
2022-09-30T08:00:41.701Z,59.97
2022-09-30T08:01:45.413Z,58.10
2022-09-30T08:02:47.535Z,60.99
2022-09-30T08:03:53.698Z,61.74
2022-09-30T08:04:56.117Z,61.50
2022-09-30T08:06:05.123Z,58.48
2022-09-30T08:07:07.317Z,56.64
2022-09-30T08:08:09.413Z,60.17
2022-09-30T08:09:13.075Z,58.57
2022-09-30T08:10:15.602Z,57.16
2022-09-30T08:11:18.029Z,55.84
2022-09-30T08:12:20.150Z,56.04
2022-09-30T08:13:22.342Z,55.23
2022-09-30T08:14:26.897Z,55.85
2022-09-30T08:15:29.073Z,56.82
2022-09-30T08:16:31.716Z,55.11
2022-09-30T08:17:33.849Z,58.60
2022-09-30T08:18:36.511Z,56.66
2022-09-30T08:19:41.366Z,58.39
2022-09-30T08:20:43.534Z,57.91
2022-09-30T08:21:46.780Z,57.92
2022-09-30T08:22:52.746Z,57.60
2022-09-30T08:23:54.931Z,60.54
2022-09-30T08:24:57.049Z,59.89
2022-09-30T08:26:09.860Z,60.58
2022-09-30T08:27:12.001Z,61.40
2022-09-30T08:28:14.519Z,64.00
2022-09-30T08:29:20.503Z,63.52
2022-09-30T08:30:27.223Z,65.34
2022-09-30T08:31:29.867Z,66.42
2022-09-30T08:32:32.512Z,62.57
2022-09-30T08:33:35.523Z,62.73
2022-09-30T08:34:37.704Z,64.62
2022-09-30T08:35:39.839Z,60.82
2022-09-30T08:36:41.961Z,61.69
2022-09-30T08:37:44.169Z,62.46
2022-09-30T08:38:46.401Z,59.51
2022-09-30T08:39:48.641Z,56.89
2022-09-30T08:41:15.499Z,58.35
2022-09-30T08:42:45.747Z,57.89
2022-09-30T08:44:15.557Z,57.82
2022-09-30T08:45:36.329Z,58.92
2022-09-30T08:46:57.425Z,54.91
2022-09-30T08:48:19.375Z,55.53
2022-09-30T08:49:49.719Z,54.95
2022-09-30T08:51:27.621Z,52.75
2022-09-30T08:52:48.341Z,54.93
2022-09-30T08:53:51.551Z,57.65
2022-09-30T08:54:55.743Z,60.66
2022-09-30T08:56:02.443Z,59.21
2022-09-30T08:57:05.822Z,56.41
2022-09-30T08:58:22.532Z,57.81
2022-09-30T08:59:26.515Z,53.82
2022-09-30T09:00:28.712Z,54.08
2022-09-30T09:01:34.108Z,54.06
2022-09-30T09:02:50.588Z,53.07
2022-09-30T09:03:54.095Z,52.48
2022-09-30T09:05:05.808Z,50.62
2022-09-30T09:06:29.231Z,50.55
2022-09-30T09:07:43.432Z,52.55
2022-09-30T09:08:56.132Z,50.22
2022-09-30T09:10:30.579Z,51.09
2022-09-30T09:11:51.403Z,48.06
2022-09-30T09:13:09.456Z,48.74
2022-09-30T09:14:49.912Z,48.03
2022-09-30T09:16:10.336Z,48.51
2022-09-30T09:17:34.402Z,47.49
2022-09-30T09:18:46.530Z,50.55
2022-09-30T09:20:11.679Z,50.78
2022-09-30T09:21:36.468Z,52.88
2022-09-30T09:22:39.217Z,53.88
2022-09-30T09:23:41.820Z,55.47
2022-09-30T09:24:47.341Z,55.26
2022-09-30T09:25:55.586Z,52.65
2022-09-30T09:27:01.247Z,51.16
2022-09-30T09:28:26.171Z,49.86
2022-09-30T09:29:55.966Z,47.39
2022-09-30T09:31:00.183Z,51.76
2022-09-30T09:32:05.070Z,53.69
2022-09-30T09:33:21.449Z,56.77
2022-09-30T09:34:25.551Z,59.30
2022-09-30T09:35:53.317Z,58.35
2022-09-30T09:36:55.398Z,59.15
2022-09-30T09:38:36.685Z,61.27
2022-09-30T09:40:01.592Z,57.77
2022-09-30T09:41:57.003Z,55.37
2022-09-30T09:43:07.629Z,55.00
2022-09-30T09:44:28.831Z,54.53
2022-09-30T09:45:40.210Z,53.49
2022-09-30T09:46:59.310Z,53.59
2022-09-30T09:48:01.568Z,54.73
2022-09-30T09:49:24.114Z,54.03
2022-09-30T09:50:32.574Z,53.63
2022-09-30T09:51:40.034Z,54.64
2022-09-30T09:53:05.041Z,51.96
2022-09-30T09:54:12.249Z,47.76
2022-09-30T09:55:18.957Z,47.94
2022-09-30T09:56:23.233Z,48.27
2022-09-30T09:57:32.070Z,47.18
2022-09-30T09:58:34.195Z,45.24
2022-09-30T09:59:39.300Z,46.12
2022-09-30T10:00:47.913Z,45.97
2022-09-30T10:01:52.741Z,46.50
2022-09-30T10:03:08.444Z,47.60
2022-09-30T10:04:33.190Z,45.90
2022-09-30T10:05:42.375Z,44.22
2022-09-30T10:06:53.396Z,43.04
2022-09-30T10:08:14.892Z,43.49
2022-09-30T10:09:25.918Z,46.70
2022-09-30T10:10:29.947Z,45.53
2022-09-30T10:11:32.028Z,43.75
2022-09-30T10:12:34.847Z,43.36
2022-09-30T10:13:46.647Z,43.65
2022-09-30T10:14:53.010Z,42.94
2022-09-30T10:15:57.849Z,43.92
2022-09-30T10:17:05.533Z,42.88
2022-09-30T10:18:17.972Z,42.81
2022-09-30T10:19:27.275Z,43.95
2022-09-30T10:20:36.399Z,45.46
2022-09-30T10:21:38.607Z,45.62
2022-09-30T10:22:40.951Z,47.25
2022-09-30T10:23:43.054Z,47.14
2022-09-30T10:24:45.203Z,47.25
2022-09-30T10:26:16.635Z,49.18
2022-09-30T10:27:34.934Z,50.52
2022-09-30T10:28:47.117Z,53.09
2022-09-30T10:29:49.335Z,55.45
2022-09-30T10:30:54.495Z,54.25
2022-09-30T10:31:59.897Z,55.97
2022-09-30T10:33:06.597Z,54.54
2022-09-30T10:34:21.930Z,52.87
2022-09-30T10:35:24.322Z,54.64
2022-09-30T10:36:33.312Z,53.10
2022-09-30T10:37:35.493Z,52.28
2022-09-30T10:38:58.896Z,52.85
2022-09-30T10:40:08.980Z,54.42
2022-09-30T10:41:11.338Z,55.38
2022-09-30T10:42:26.530Z,55.29
2022-09-30T10:43:34.649Z,57.14
2022-09-30T10:44:49.568Z,56.71
2022-09-30T10:46:20.885Z,57.63
2022-09-30T10:47:19.460Z,58.75
2022-09-30T10:48:24.496Z,58.38
2022-09-30T10:49:51.087Z,57.42
2022-09-30T10:50:55.571Z,58.63
2022-09-30T10:51:59.920Z,56.19
2022-09-30T10:53:15.651Z,55.05
2022-09-30T10:54:56.678Z,52.80
2022-09-30T10:56:00.962Z,52.82
2022-09-30T10:57:03.983Z,54.14
2022-09-30T10:58:23.475Z,52.00
2022-09-30T10:59:35.113Z,51.07
2022-09-30T11:00:37.591Z,49.60
2022-09-30T11:01:52.662Z,47.42
2022-09-30T11:03:13.241Z,49.85
2022-09-30T11:04:31.748Z,48.83
2022-09-30T11:05:42.664Z,49.23
2022-09-30T11:06:47.186Z,50.49
2022-09-30T11:08:07.591Z,50.30
2022-09-30T11:09:15.767Z,50.88
2022-09-30T11:10:41.865Z,51.17
2022-09-30T11:11:53.344Z,51.26
2022-09-30T11:13:27.689Z,51.30
2022-09-30T11:14:38.584Z,50.44
2022-09-30T11:15:52.869Z,50.14
2022-09-30T11:17:18.082Z,46.64
2022-09-30T11:18:34.670Z,46.23
2022-09-30T11:19:48.552Z,44.16
2022-09-30T11:20:58.014Z,43.47
2022-09-30T11:22:13.506Z,47.20
2022-09-30T11:23:24.334Z,46.87
2022-09-30T11:24:40.802Z,46.96
2022-09-30T11:26:02.896Z,45.03
2022-09-30T11:27:20.110Z,46.23
2022-09-30T11:28:25.290Z,47.81
2022-09-30T11:29:46.430Z,47.15
2022-09-30T11:31:06.947Z,49.15
2022-09-30T11:32:32.754Z,48.96
2022-09-30T11:33:50.030Z,49.65
2022-09-30T11:35:01.522Z,50.88
2022-09-30T11:36:29.338Z,51.77
2022-09-30T11:38:10.358Z,53.44
2022-09-30T11:39:34.196Z,53.63
2022-09-30T11:41:25.262Z,52.87
2022-09-30T11:42:38.735Z,54.09
2022-09-30T11:43:59.421Z,54.60
2022-09-30T11:45:23.454Z,55.58
2022-09-30T11:46:44.511Z,55.60
2022-09-30T11:48:05.573Z,56.42
2022-09-30T11:49:19.773Z,55.68
2022-09-30T11:50:30.292Z,51.63
2022-09-30T11:51:32.341Z,52.40
2022-09-30T11:52:38.888Z,52.21
2022-09-30T11:53:59.018Z,51.49
2022-09-30T11:55:11.817Z,53.17
2022-09-30T11:56:42.161Z,54.88
2022-09-30T11:58:11.965Z,56.54
2022-09-30T11:59:26.626Z,55.93
2022-09-30T12:00:31.579Z,54.92
2022-09-30T12:01:41.391Z,56.96
2022-09-30T12:02:50.859Z,55.29
2022-09-30T12:04:17.270Z,57.74
2022-09-30T12:05:46.031Z,57.88
2022-09-30T12:06:58.135Z,58.26
2022-09-30T12:08:22.066Z,58.44
2022-09-30T12:09:30.531Z,60.51
2022-09-30T12:11:10.814Z,61.29
2022-09-30T12:12:17.197Z,63.51
2022-09-30T12:13:25.817Z,63.65
2022-09-30T12:14:40.854Z,62.99
2022-09-30T12:15:45.371Z,64.74
2022-09-30T12:16:49.019Z,64.50
2022-09-30T12:17:59.322Z,63.51
2022-09-30T12:19:26.589Z,63.90
2022-09-30T12:20:55.300Z,62.59
2022-09-30T12:22:07.608Z,59.88
2022-09-30T12:23:21.054Z,58.98
2022-09-30T12:24:36.181Z,56.19
2022-09-30T12:25:46.039Z,55.78
2022-09-30T12:26:48.207Z,54.39
2022-09-30T12:28:31.933Z,55.19
2022-09-30T12:30:00.708Z,56.72
2022-09-30T12:31:19.301Z,53.35
2022-09-30T12:32:30.166Z,51.56
2022-09-30T12:33:41.004Z,49.34
2022-09-30T12:35:23.908Z,47.86
2022-09-30T12:36:44.521Z,49.21
2022-09-30T12:37:57.687Z,49.74
2022-09-30T12:39:22.248Z,49.98
2022-09-30T12:41:02.538Z,48.19
2022-09-30T12:42:16.645Z,47.71
2022-09-30T12:43:46.809Z,48.87
2022-09-30T12:45:07.670Z,49.49
2022-09-30T12:46:15.870Z,50.54
2022-09-30T12:47:27.301Z,49.65
2022-09-30T12:48:40.513Z,47.28
2022-09-30T12:49:43.972Z,49.73
2022-09-30T12:50:52.834Z,49.80
2022-09-30T12:51:58.556Z,51.11
2022-09-30T12:53:17.735Z,53.29
2022-09-30T12:54:25.419Z,52.18
2022-09-30T12:55:32.618Z,50.74
2022-09-30T12:56:35.343Z,49.76
2022-09-30T12:57:42.220Z,48.69
2022-09-30T12:58:49.529Z,47.91
2022-09-30T12:59:55.649Z,47.53
2022-09-30T13:01:06.207Z,46.93
2022-09-30T13:02:22.764Z,47.11
2022-09-30T13:03:25.484Z,46.88
2022-09-30T13:04:34.426Z,46.55
2022-09-30T13:05:38.064Z,47.22
2022-09-30T13:06:46.106Z,46.68
2022-09-30T13:08:03.613Z,47.03
2022-09-30T13:09:19.504Z,50.06
2022-09-30T13:10:28.728Z,51.88
2022-09-30T13:11:45.306Z,54.14
2022-09-30T13:12:48.074Z,53.16
2022-09-30T13:14:12.774Z,52.25
2022-09-30T13:15:44.651Z,51.53
2022-09-30T13:16:59.040Z,51.22
2022-09-30T13:18:19.296Z,51.26
2022-09-30T13:19:22.191Z,52.12
2022-09-30T13:20:56.644Z,52.46
2022-09-30T13:22:29.780Z,52.94
2022-09-30T13:23:40.075Z,54.97
2022-09-30T13:25:00.501Z,55.69
2022-09-30T13:26:03.960Z,57.69
2022-09-30T13:27:15.295Z,58.38
2022-09-30T13:28:24.462Z,59.60
2022-09-30T13:29:32.960Z,59.72
2022-09-30T13:30:36.336Z,59.49
2022-09-30T13:31:50.462Z,59.11
2022-09-30T13:32:57.404Z,57.75
2022-09-30T13:34:02.622Z,55.85
2022-09-30T13:35:32.760Z,56.11
2022-09-30T13:36:44.294Z,58.15
2022-09-30T13:38:15.220Z,57.40
2022-09-30T13:39:23.130Z,56.05
2022-09-30T13:40:49.732Z,55.03
2022-09-30T13:42:01.218Z,56.13
2022-09-30T13:43:04.531Z,56.94
2022-09-30T13:44:17.345Z,57.47
2022-09-30T13:45:31.896Z,58.57
2022-09-30T13:46:43.329Z,59.06
2022-09-30T13:48:07.337Z,58.67
2022-09-30T13:49:19.347Z,60.46
2022-09-30T13:50:36.881Z,61.58
2022-09-30T13:51:40.334Z,62.41
2022-09-30T13:52:45.579Z,63.00
2022-09-30T13:53:55.291Z,62.19
2022-09-30T13:55:03.152Z,62.01
2022-09-30T13:56:09.397Z,62.77
2022-09-30T13:57:19.717Z,63.48
2022-09-30T13:59:00.656Z,63.41
2022-09-30T14:00:11.252Z,62.12
2022-09-30T14:01:26.957Z,62.02
2022-09-30T14:02:50.470Z,58.92
2022-09-30T14:04:10.894Z,59.49
2022-09-30T14:05:25.346Z,61.11
2022-09-30T14:06:44.704Z,60.32
2022-09-30T14:08:01.083Z,60.52
2022-09-30T14:09:09.233Z,62.21
2022-09-30T14:10:28.238Z,61.80
2022-09-30T14:12:02.796Z,61.05
2022-09-30T14:13:16.961Z,59.93
2022-09-30T14:14:47.088Z,60.50
2022-09-30T14:16:10.573Z,60.24
2022-09-30T14:17:33.959Z,60.41
2022-09-30T14:18:50.619Z,58.80
2022-09-30T14:20:01.669Z,60.15
2022-09-30T14:21:34.860Z,59.48
2022-09-30T14:22:37.232Z,60.80
2022-09-30T14:23:39.464Z,61.82
2022-09-30T14:24:41.924Z,61.06
2022-09-30T14:25:50.287Z,61.27
2022-09-30T14:27:16.981Z,62.00
2022-09-30T14:28:31.641Z,62.83
2022-09-30T14:30:11.403Z,63.76
2022-09-30T14:31:15.529Z,64.87
2022-09-30T14:32:21.360Z,64.82
2022-09-30T14:33:28.113Z,64.95
2022-09-30T14:34:33.907Z,64.32
2022-09-30T14:35:38.023Z,64.88
2022-09-30T14:36:41.094Z,65.23
2022-09-30T14:37:46.795Z,65.21
2022-09-30T14:38:58.255Z,64.88
2022-09-30T14:40:01.342Z,63.87
2022-09-30T14:41:09.107Z,63.10
2022-09-30T14:42:18.682Z,62.27
2022-09-30T14:43:40.308Z,60.47
2022-09-30T14:44:44.729Z,59.53